createdAt,value
2018-04-16T00:01:57.360Z,69.10
2018-04-16T00:04:25.028Z,69.47
2018-04-16T00:06:53.655Z,69.03
2018-04-16T00:09:21.292Z,69.68
2018-04-16T00:11:48.988Z,70.00
2018-04-16T00:14:16.756Z,69.81
2018-04-16T00:16:44.431Z,69.44
2018-04-16T00:19:12.096Z,69.76
2018-04-16T00:21:40.308Z,68.87
2018-04-16T00:24:08.753Z,68.65
2018-04-16T00:26:36.361Z,67.84
2018-04-16T00:29:04.029Z,68.02
2018-04-16T00:34:38.473Z,67.45
2018-04-16T00:37:11.598Z,67.04
2018-04-16T00:39:44.907Z,66.37
2018-04-16T00:42:18.185Z,66.52
2018-04-16T00:44:51.479Z,66.65
2018-04-16T00:47:24.536Z,65.86
2018-04-16T00:50:12.248Z,65.60
2018-04-16T00:52:45.481Z,65.08
2018-04-16T00:55:18.680Z,64.52
2018-04-16T00:57:51.925Z,63.36
2018-04-16T01:00:40.359Z,63.56
2018-04-16T01:03:13.577Z,63.49
2018-04-16T01:05:46.830Z,62.67
2018-04-16T01:08:19.882Z,62.08
2018-04-16T01:10:53.343Z,61.83
2018-04-16T01:13:26.413Z,60.85
2018-04-16T01:15:59.572Z,60.33
2018-04-16T01:18:32.847Z,60.74
2018-04-16T01:21:06.835Z,60.59
2018-04-16T01:23:39.952Z,61.06
2018-04-16T01:26:13.228Z,60.68
2018-04-16T01:28:46.451Z,60.30
2018-04-16T01:31:20.701Z,60.75
2018-04-16T01:33:53.802Z,60.78
2018-04-16T01:36:27.095Z,59.58
2018-04-16T01:39:00.375Z,59.74
2018-04-16T01:41:33.784Z,60.12
2018-04-16T01:44:07.048Z,59.17
2018-04-16T01:46:40.504Z,59.02
2018-04-16T01:49:13.732Z,58.99
2018-04-16T01:51:47.034Z,59.06
2018-04-16T01:54:20.103Z,58.29
2018-04-16T01:56:54.357Z,58.54
2018-04-16T01:59:27.553Z,58.91
2018-04-16T02:02:00.724Z,57.59
2018-04-16T02:04:33.869Z,56.65
2018-04-16T02:07:07.035Z,56.76
2018-04-16T02:09:40.056Z,56.88
2018-04-16T02:12:14.053Z,57.44
2018-04-16T02:14:47.189Z,56.46
2018-04-16T02:17:20.486Z,56.72
2018-04-16T02:22:58.028Z,56.70
2018-04-16T02:25:31.112Z,56.42
2018-04-16T02:28:04.274Z,56.10
2018-04-16T02:30:37.452Z,56.90
2018-04-16T02:33:10.895Z,56.29
2018-04-16T02:35:44.118Z,56.78
2018-04-16T02:38:17.329Z,57.21
2018-04-16T02:40:50.422Z,57.03
2018-04-16T02:43:23.757Z,56.27
2018-04-16T02:45:57.604Z,56.52
2018-04-16T02:48:30.755Z,56.90
2018-04-16T02:51:04.232Z,55.78
2018-04-16T02:53:37.550Z,56.37
2018-04-16T02:56:10.873Z,55.57
2018-04-16T02:58:44.047Z,56.41
2018-04-16T03:01:17.245Z,56.86
2018-04-16T03:03:50.521Z,57.01
2018-04-16T03:06:25.224Z,57.76
2018-04-16T03:08:58.465Z,55.78
2018-04-16T03:11:31.689Z,55.69
2018-04-16T03:14:05.856Z,56.47
2018-04-16T03:16:39.063Z,56.36
2018-04-16T03:19:12.317Z,55.74
2018-04-16T03:21:45.392Z,55.85
2018-04-16T03:24:18.550Z,55.66
2018-04-16T03:26:51.638Z,55.94
2018-04-16T03:29:24.855Z,56.84
2018-04-16T03:31:58.005Z,57.34
2018-04-16T03:34:31.907Z,57.70
2018-04-16T03:37:05.140Z,58.01
2018-04-16T03:39:38.519Z,58.24
2018-04-16T03:42:11.589Z,57.91
2018-04-16T03:44:45.434Z,57.19
2018-04-16T03:47:18.551Z,57.74
2018-04-16T03:49:51.937Z,57.86
2018-04-16T03:52:26.080Z,56.93
2018-04-16T03:54:54.265Z,56.92
2018-04-16T03:57:21.853Z,56.35
2018-04-16T03:59:49.500Z,56.24
2018-04-16T04:02:17.192Z,57.89
2018-04-16T04:04:44.807Z,57.05
2018-04-16T04:07:12.392Z,56.76
2018-04-16T04:09:40.189Z,56.03
2018-04-16T04:12:08.793Z,55.21
2018-04-16T04:14:36.372Z,55.68
2018-04-16T04:17:04.042Z,55.53
2018-04-16T04:19:31.632Z,55.14
2018-04-16T04:21:59.228Z,54.82
2018-04-16T04:24:38.658Z,54.40
2018-04-16T04:27:27.017Z,54.22
2018-04-16T04:30:06.441Z,54.12
2018-04-16T04:32:34.034Z,52.00
2018-04-16T04:35:01.615Z,51.84
2018-04-16T04:37:29.325Z,50.31
2018-04-16T04:39:56.941Z,49.00
2018-04-16T04:42:24.535Z,48.79
2018-04-16T04:44:52.278Z,49.32
2018-04-16T04:47:19.876Z,49.53
2018-04-16T04:49:47.516Z,45.00
2018-04-16T04:52:15.612Z,44.57
2018-04-16T04:54:43.443Z,46.23
2018-04-16T04:57:11.081Z,43.97
2018-04-16T04:59:38.717Z,43.02
2018-04-16T05:02:06.929Z,44.20
2018-04-16T05:04:34.511Z,42.98
2018-04-16T05:07:02.180Z,43.76
2018-04-16T05:09:29.820Z,43.64
2018-04-16T05:11:57.464Z,44.03
2018-04-16T05:14:25.114Z,43.48
2018-04-16T05:16:52.692Z,42.70
2018-04-16T05:19:20.276Z,42.48
2018-04-16T05:21:47.913Z,42.89
2018-04-16T05:24:15.563Z,42.05
2018-04-16T05:26:43.163Z,42.31
2018-04-16T05:29:10.928Z,42.25
2018-04-16T05:31:38.582Z,40.88
2018-04-16T05:34:06.161Z,39.02
2018-04-16T05:36:33.876Z,39.60
2018-04-16T05:39:01.486Z,39.12
2018-04-16T05:41:29.136Z,38.20
2018-04-16T05:43:56.773Z,39.48
2018-04-16T05:46:24.404Z,40.52
2018-04-16T05:48:52.048Z,38.47
2018-04-16T05:51:19.782Z,38.74
2018-04-16T05:53:47.451Z,40.50
2018-04-16T05:56:15.320Z,39.29
2018-04-16T05:58:42.956Z,39.36
2018-04-16T06:01:10.596Z,40.14
2018-04-16T06:03:38.251Z,38.36
2018-04-16T06:06:06.048Z,39.50
2018-04-16T06:08:33.662Z,39.45
2018-04-16T06:11:01.320Z,39.32
2018-04-16T06:13:29.172Z,40.40
2018-04-16T06:15:56.831Z,39.23
2018-04-16T06:18:24.464Z,40.05
2018-04-16T06:20:52.115Z,39.59
2018-04-16T06:23:19.796Z,38.66
2018-04-16T06:25:47.424Z,40.13
2018-04-16T06:28:15.146Z,38.46
2018-04-16T06:30:42.729Z,41.12
2018-04-16T06:33:10.313Z,39.60
2018-04-16T06:35:37.996Z,39.55
2018-04-16T06:38:06.367Z,39.13
2018-04-16T06:40:33.972Z,39.49
2018-04-16T06:43:01.773Z,40.09
2018-04-16T06:45:29.441Z,38.67
2018-04-16T06:47:57.026Z,38.98
2018-04-16T06:50:24.743Z,39.45
2018-04-16T06:52:52.385Z,39.27
2018-04-16T06:55:20.037Z,40.00
2018-04-16T06:57:48.324Z,39.08
2018-04-16T07:00:15.946Z,40.05
2018-04-16T07:02:43.530Z,38.07
2018-04-16T07:05:11.191Z,38.65
2018-04-16T07:07:38.787Z,39.09
2018-04-16T07:10:06.432Z,38.24
2018-04-16T07:12:34.144Z,38.02
2018-04-16T07:15:02.549Z,37.99
2018-04-16T07:17:30.189Z,36.28
2018-04-16T07:19:57.933Z,37.99
2018-04-16T07:22:25.511Z,36.40
2018-04-16T07:24:53.086Z,36.91
2018-04-16T07:27:20.852Z,36.13
2018-04-16T07:29:48.451Z,37.57
2018-04-16T07:32:16.094Z,37.41
2018-04-16T07:34:44.157Z,37.57
2018-04-16T07:37:11.760Z,37.30
2018-04-16T07:39:39.339Z,38.51
2018-04-16T07:42:06.965Z,35.09
2018-04-16T07:44:34.617Z,34.97
2018-04-16T07:47:02.257Z,35.05
2018-04-16T07:54:19.540Z,35.34
2018-04-16T07:56:47.258Z,35.56
2018-04-16T07:59:15.039Z,34.72
2018-04-16T08:01:42.624Z,36.00
2018-04-16T08:04:10.318Z,36.39
2018-04-16T08:06:38.006Z,37.63
2018-04-16T08:09:07.464Z,35.32
2018-04-16T08:11:35.173Z,33.84
2018-04-16T08:14:02.778Z,34.42
2018-04-16T08:16:30.429Z,34.88
2018-04-16T08:18:58.056Z,34.59
2018-04-16T08:21:25.700Z,34.61
2018-04-16T08:23:53.279Z,33.74
2018-04-16T08:26:20.998Z,34.97
2018-04-16T08:28:48.595Z,33.29
2018-04-16T08:31:16.202Z,34.50
2018-04-16T08:33:43.973Z,33.72
2018-04-16T08:36:11.615Z,34.36
2018-04-16T08:38:39.188Z,33.85
2018-04-16T08:41:06.907Z,32.60
2018-04-16T08:43:34.487Z,32.85
2018-04-16T08:46:02.117Z,30.33
2018-04-16T08:48:29.844Z,30.48
2018-04-16T08:50:57.420Z,32.07
2018-04-16T08:53:24.996Z,31.71
2018-04-16T08:55:52.619Z,32.31
2018-04-16T08:58:20.217Z,30.82
2018-04-16T09:00:47.891Z,30.85
2018-04-16T09:03:15.600Z,31.24
2018-04-16T09:05:43.184Z,30.79
2018-04-16T09:08:12.435Z,30.57
2018-04-16T09:10:40.175Z,31.54
2018-04-16T09:13:07.814Z,31.73
2018-04-16T09:15:35.440Z,32.57
2018-04-16T09:18:03.066Z,32.03
2018-04-16T09:20:30.680Z,32.29
2018-04-16T09:22:58.278Z,31.90
2018-04-16T09:25:25.985Z,32.22
2018-04-16T09:27:53.636Z,31.66
2018-04-16T09:30:21.216Z,29.96
2018-04-16T09:32:48.841Z,31.58
2018-04-16T09:35:16.478Z,30.45
2018-04-16T09:37:44.125Z,31.98
2018-04-16T09:40:11.876Z,31.42
2018-04-16T09:42:39.467Z,29.50
2018-04-16T09:45:07.101Z,31.41
2018-04-16T09:47:34.948Z,31.57
2018-04-16T09:50:02.596Z,32.53
2018-04-16T09:52:30.231Z,30.87
2018-04-16T09:54:57.860Z,31.16
2018-04-16T09:57:25.440Z,29.71
2018-04-16T09:59:53.092Z,29.77
2018-04-16T10:02:25.913Z,30.26
2018-04-16T10:04:53.502Z,28.75
2018-04-16T10:07:21.083Z,29.58
2018-04-16T10:09:48.718Z,30.60
2018-04-16T10:12:16.345Z,29.73
2018-04-16T10:14:43.924Z,30.75
2018-04-16T10:17:11.549Z,28.78
2018-04-16T10:19:39.196Z,27.07
2018-04-16T10:22:06.844Z,25.49
2018-04-16T10:24:34.511Z,25.72
2018-04-16T10:27:02.196Z,27.57
2018-04-16T10:29:29.845Z,28.18
2018-04-16T10:31:57.648Z,29.10
2018-04-16T10:34:25.267Z,28.81
2018-04-16T10:36:52.879Z,28.61
2018-04-16T10:39:20.520Z,29.16
2018-04-16T10:41:48.157Z,28.29
2018-04-16T10:44:15.743Z,29.00
2018-04-16T10:46:43.473Z,29.93
2018-04-16T10:49:11.069Z,30.80
2018-04-16T10:51:38.710Z,29.68
2018-04-16T10:54:06.474Z,31.68
2018-04-16T10:56:34.051Z,32.07
2018-04-16T10:59:01.630Z,30.98
2018-04-16T11:01:29.401Z,32.20
2018-04-16T11:03:57.237Z,33.07
2018-04-16T11:06:24.832Z,33.91
2018-04-16T11:08:52.499Z,33.81
2018-04-16T11:11:20.168Z,34.84
2018-04-16T11:13:47.782Z,33.49
2018-04-16T11:16:16.333Z,32.44
2018-04-16T11:18:43.978Z,31.33
2018-04-16T11:21:11.557Z,30.51
2018-04-16T11:23:39.231Z,29.44
2018-04-16T11:26:06.885Z,30.54
2018-04-16T11:28:34.476Z,30.31
2018-04-16T11:31:02.525Z,33.06
2018-04-16T11:33:30.190Z,31.60
2018-04-16T11:35:57.785Z,32.39
2018-04-16T11:38:25.508Z,32.40
2018-04-16T11:40:53.441Z,34.15
2018-04-16T11:43:21.032Z,33.47
2018-04-16T11:45:48.673Z,34.18
2018-04-16T11:48:16.272Z,32.68
2018-04-16T11:50:43.912Z,34.05
2018-04-16T11:53:11.664Z,35.31
2018-04-16T11:55:39.263Z,33.82
2018-04-16T11:58:06.884Z,32.66
2018-04-16T12:00:34.632Z,33.80
2018-04-16T12:03:02.222Z,33.92
2018-04-16T12:05:29.861Z,33.65
2018-04-16T12:07:57.579Z,34.56
2018-04-16T12:10:25.223Z,33.96
2018-04-16T12:12:52.800Z,34.36
2018-04-16T12:15:20.504Z,34.65
2018-04-16T12:17:48.164Z,34.71
2018-04-16T12:20:15.833Z,34.09
2018-04-16T12:22:43.488Z,36.23
2018-04-16T12:25:11.053Z,35.59
2018-04-16T12:27:38.633Z,34.75
2018-04-16T12:30:06.374Z,35.93
2018-04-16T12:32:33.951Z,34.95
2018-04-16T12:35:01.584Z,33.93
2018-04-16T12:37:29.279Z,34.79
2018-04-16T12:39:56.939Z,34.86
2018-04-16T12:42:24.518Z,36.17
2018-04-16T12:44:52.233Z,36.14
2018-04-16T12:47:19.820Z,34.96
2018-04-16T12:49:47.391Z,33.95
2018-04-16T12:52:15.172Z,34.03
2018-04-16T12:54:42.796Z,33.96
2018-04-16T12:57:10.380Z,34.27
2018-04-16T12:59:37.999Z,32.68
2018-04-16T13:02:05.596Z,33.04
2018-04-16T13:04:33.217Z,31.53
2018-04-16T13:07:01.064Z,32.17
2018-04-16T13:09:28.663Z,31.85
2018-04-16T13:11:57.192Z,32.44
2018-04-16T13:14:24.892Z,32.31
2018-04-16T13:16:52.520Z,30.81
2018-04-16T13:19:20.101Z,32.28
2018-04-16T13:21:47.752Z,32.16
2018-04-16T13:24:15.329Z,32.69
2018-04-16T13:26:42.958Z,31.81
2018-04-16T13:29:10.648Z,32.03
2018-04-16T13:31:38.220Z,33.25
2018-04-16T13:34:05.825Z,36.69
2018-04-16T13:36:33.486Z,32.25
2018-04-16T13:39:01.057Z,31.92
2018-04-16T13:41:28.640Z,34.17
2018-04-16T13:43:56.361Z,32.69
2018-04-16T13:46:23.958Z,33.20
2018-04-16T13:48:51.562Z,33.37
2018-04-16T13:51:19.184Z,33.80
2018-04-16T13:53:46.821Z,34.46
2018-04-16T13:56:14.424Z,35.27
2018-04-16T13:58:42.058Z,35.51
2018-04-16T14:01:09.651Z,36.53
2018-04-16T14:03:37.288Z,36.65
2018-04-16T14:06:04.925Z,36.94
2018-04-16T14:08:32.579Z,38.03
2018-04-16T14:11:00.211Z,38.64
2018-04-16T14:13:27.836Z,39.13
2018-04-16T14:15:56.369Z,39.08
2018-04-16T14:18:23.968Z,40.63
2018-04-16T14:20:51.664Z,39.54
2018-04-16T14:23:19.326Z,39.60
2018-04-16T14:25:46.916Z,39.40
2018-04-16T14:28:14.687Z,39.56
2018-04-16T14:30:42.282Z,39.89
2018-04-16T14:33:09.861Z,40.73
2018-04-16T14:35:37.588Z,39.96
2018-04-16T14:38:05.328Z,40.18
2018-04-16T14:40:32.941Z,41.25
2018-04-16T14:43:00.704Z,40.79
2018-04-16T14:45:28.397Z,40.86
2018-04-16T14:47:56.041Z,41.35
2018-04-16T14:50:23.980Z,41.32
2018-04-16T14:52:51.564Z,41.12
2018-04-16T14:55:19.224Z,41.47
2018-04-16T14:57:46.957Z,41.63
2018-04-16T15:00:14.556Z,43.41
2018-04-16T15:02:42.205Z,41.66
2018-04-16T15:05:10.732Z,41.94
2018-04-16T15:07:38.414Z,41.72
2018-04-16T15:10:06.293Z,42.11
2018-04-16T15:12:34.032Z,42.37
2018-04-16T15:15:01.647Z,42.24
2018-04-16T15:17:29.220Z,43.06
2018-04-16T15:19:56.868Z,42.25
2018-04-16T15:22:24.513Z,44.25
2018-04-16T15:24:52.161Z,41.82
2018-04-16T15:27:19.856Z,43.51
2018-04-16T15:29:47.492Z,43.75
2018-04-16T15:32:15.101Z,42.58
2018-04-16T15:34:42.781Z,41.81
2018-04-16T15:37:10.411Z,42.28
2018-04-16T15:39:38.026Z,42.20
2018-04-16T15:42:05.716Z,42.01
2018-04-16T15:44:33.285Z,42.03
2018-04-16T15:47:01.011Z,40.97
2018-04-16T15:49:28.825Z,40.72
2018-04-16T15:51:56.523Z,39.90
2018-04-16T15:54:24.143Z,40.66
2018-04-16T15:56:51.872Z,41.46
2018-04-16T15:59:19.556Z,41.27
2018-04-16T16:01:47.139Z,40.03
2018-04-16T16:04:14.766Z,40.45
2018-04-16T16:06:42.383Z,39.56
2018-04-16T16:09:10.044Z,39.94
2018-04-16T16:11:37.936Z,40.35
2018-04-16T16:14:05.626Z,40.39
2018-04-16T16:16:33.828Z,40.96
2018-04-16T16:19:01.511Z,39.81
2018-04-16T16:21:29.092Z,40.13
2018-04-16T16:23:56.719Z,41.01
2018-04-16T16:26:24.507Z,42.36
2018-04-16T16:28:52.097Z,41.65
2018-04-16T16:31:19.736Z,40.21
2018-04-16T16:33:47.352Z,40.06
2018-04-16T16:36:14.932Z,40.04
2018-04-16T16:38:42.592Z,40.86
2018-04-16T16:41:10.324Z,41.78
2018-04-16T16:43:37.908Z,41.92
2018-04-16T16:46:05.491Z,42.13
2018-04-16T16:48:35.907Z,41.91
2018-04-16T16:51:03.529Z,41.32
2018-04-16T16:53:31.107Z,39.75
2018-04-16T16:55:58.748Z,37.19
2018-04-16T16:58:26.337Z,34.24
2018-04-16T17:00:53.936Z,34.42
2018-04-16T17:03:21.643Z,35.97
2018-04-16T17:05:49.250Z,33.49
2018-04-16T17:08:16.856Z,33.71
2018-04-16T17:10:44.580Z,33.77
2018-04-16T17:13:12.424Z,35.10
2018-04-16T17:15:40.012Z,35.41
2018-04-16T17:18:07.637Z,35.49
2018-04-16T17:20:35.308Z,35.45
2018-04-16T17:23:02.883Z,34.94
2018-04-16T17:25:30.581Z,36.37
2018-04-16T17:27:58.261Z,37.38
2018-04-16T17:30:25.914Z,37.87
2018-04-16T17:32:53.623Z,36.42
2018-04-16T17:35:21.261Z,37.75
2018-04-16T17:37:48.906Z,38.23
2018-04-16T17:40:16.533Z,38.97
2018-04-16T17:42:44.120Z,38.94
2018-04-16T17:45:11.718Z,39.37
2018-04-16T17:47:39.447Z,39.62
2018-04-16T17:50:07.027Z,39.93
2018-04-16T17:52:34.656Z,40.47
2018-04-16T17:55:02.409Z,38.41
2018-04-16T17:57:29.987Z,37.20
2018-04-16T17:59:57.581Z,38.01
2018-04-16T18:02:25.273Z,38.56
2018-04-16T18:04:52.861Z,39.38
2018-04-16T18:07:20.507Z,40.00
2018-04-16T18:09:48.221Z,40.88
2018-04-16T18:12:16.131Z,40.98
2018-04-16T18:14:43.854Z,42.05
2018-04-16T18:17:11.539Z,42.70
2018-04-16T18:19:39.180Z,42.74
2018-04-16T18:22:06.764Z,43.37
2018-04-16T18:24:34.495Z,43.73
2018-04-16T18:27:02.106Z,44.28
2018-04-16T18:29:29.789Z,45.55
2018-04-16T18:31:57.452Z,44.39
2018-04-16T18:34:25.105Z,46.40
2018-04-16T18:36:52.689Z,45.16
2018-04-16T18:39:20.439Z,47.31
2018-04-16T18:41:48.092Z,49.36
2018-04-16T18:44:15.744Z,48.82
2018-04-16T18:46:43.376Z,47.40
2018-04-16T18:49:10.983Z,48.60
2018-04-16T18:51:38.575Z,47.32
2018-04-16T18:54:06.205Z,47.01
2018-04-16T18:56:33.795Z,47.92
2018-04-16T18:59:01.376Z,48.56
2018-04-16T19:01:31.293Z,49.94
2018-04-16T19:03:58.925Z,48.41
2018-04-16T19:06:26.499Z,48.09
2018-04-16T19:08:54.128Z,48.78
2018-04-16T19:11:21.743Z,48.09
2018-04-16T19:13:49.308Z,48.89
2018-04-16T19:16:17.200Z,49.04
2018-04-16T19:18:44.783Z,49.72
2018-04-16T19:24:17.646Z,49.72
2018-04-16T19:26:50.962Z,50.49
2018-04-16T19:29:18.540Z,50.43
2018-04-16T19:31:46.135Z,49.69
2018-04-16T19:34:19.416Z,51.37
2018-04-16T19:36:47.061Z,51.03
2018-04-16T19:39:17.454Z,51.65
2018-04-16T19:41:51.581Z,50.56
2018-04-16T19:44:19.162Z,51.20
2018-04-16T19:46:46.737Z,52.30
2018-04-16T19:49:20.036Z,50.99
2018-04-16T19:51:47.620Z,51.04
2018-04-16T19:54:15.273Z,51.48
2018-04-16T19:56:48.459Z,52.23
2018-04-16T19:59:16.030Z,51.92
2018-04-16T20:01:43.655Z,51.93
2018-04-16T20:04:11.393Z,53.33
2018-04-16T20:06:38.978Z,53.83
2018-04-16T20:09:06.616Z,52.86
2018-04-16T20:11:34.312Z,53.64
2018-04-16T20:14:04.668Z,53.35
2018-04-16T20:16:32.336Z,52.73
2018-04-16T20:18:59.990Z,51.16
2018-04-16T20:21:27.579Z,51.64
2018-04-16T20:23:55.232Z,52.57
2018-04-16T20:26:22.928Z,52.84
2018-04-16T20:28:50.535Z,53.03
2018-04-16T20:31:18.200Z,51.34
2018-04-16T20:33:46.035Z,49.97
2018-04-16T20:36:13.623Z,50.09
2018-04-16T20:38:41.269Z,50.72
2018-04-16T20:41:09.850Z,50.26
2018-04-16T20:43:37.497Z,49.28
2018-04-16T20:46:05.154Z,48.89
2018-04-16T20:48:32.933Z,48.18
2018-04-16T20:51:00.584Z,48.45
2018-04-16T20:53:28.176Z,46.57
2018-04-16T20:55:58.483Z,45.90
2018-04-16T20:58:26.078Z,44.13
2018-04-16T21:00:53.703Z,43.75
2018-04-16T21:03:21.488Z,45.29
2018-04-16T21:05:49.137Z,45.65
2018-04-16T21:08:16.785Z,47.69
2018-04-16T21:10:44.607Z,50.25
2018-04-16T21:13:12.216Z,48.59
2018-04-16T21:15:39.828Z,51.29
2018-04-16T21:18:08.045Z,52.28
2018-04-16T21:20:35.646Z,54.00
2018-04-16T21:23:03.281Z,53.22
2018-04-16T21:25:30.996Z,54.34
2018-04-16T21:27:58.582Z,55.47
2018-04-16T21:30:26.195Z,53.11
2018-04-16T21:32:53.853Z,53.32
2018-04-16T21:35:21.452Z,51.30
2018-04-16T21:37:49.086Z,53.83
2018-04-16T21:40:16.781Z,53.27
2018-04-16T21:42:44.368Z,51.51
2018-04-16T21:45:11.938Z,51.09
2018-04-16T21:47:40.417Z,54.63
2018-04-16T21:50:08.853Z,57.08
2018-04-16T21:52:36.517Z,59.06
2018-04-16T21:55:04.255Z,60.09
2018-04-16T21:57:31.832Z,61.36
2018-04-16T21:59:59.419Z,62.19
2018-04-16T22:02:27.197Z,62.90
2018-04-16T22:04:54.770Z,63.22
2018-04-16T22:07:22.413Z,64.12
2018-04-16T22:09:50.044Z,64.33
2018-04-16T22:12:17.681Z,63.03
2018-04-16T22:14:45.329Z,64.10
2018-04-16T22:17:12.943Z,63.09
2018-04-16T22:19:40.596Z,62.89
2018-04-16T22:22:08.180Z,64.41
2018-04-16T22:24:35.978Z,61.77
2018-04-16T22:27:03.556Z,62.28
2018-04-16T22:29:31.131Z,61.11
2018-04-16T22:31:58.816Z,62.21
2018-04-16T22:34:26.478Z,61.91
2018-04-16T22:36:54.060Z,63.71
2018-04-16T22:39:21.771Z,63.97
2018-04-16T22:41:49.356Z,63.59
2018-04-16T22:44:16.938Z,63.38
2018-04-16T22:46:44.668Z,63.74
2018-04-16T22:49:12.321Z,62.85
2018-04-16T22:51:39.985Z,62.50
2018-04-16T22:54:07.643Z,60.97
2018-04-16T22:56:35.296Z,60.50
2018-04-16T22:59:02.957Z,60.81
2018-04-16T23:01:30.764Z,63.04
2018-04-16T23:03:58.408Z,61.70
2018-04-16T23:06:26.068Z,62.00
2018-04-16T23:08:53.790Z,61.52
2018-04-16T23:11:21.381Z,60.56
2018-04-16T23:13:48.984Z,61.29
2018-04-16T23:16:16.622Z,61.80
2018-04-16T23:18:44.276Z,61.65
2018-04-16T23:21:11.992Z,62.26
2018-04-16T23:23:39.623Z,61.40
2018-04-16T23:26:07.255Z,61.95
2018-04-16T23:28:34.825Z,61.30
2018-04-16T23:31:02.505Z,63.54
2018-04-16T23:33:30.090Z,65.35
2018-04-16T23:35:57.720Z,66.32
2018-04-16T23:38:25.437Z,67.01
2018-04-16T23:40:53.036Z,65.96
2018-04-16T23:43:20.612Z,65.46
2018-04-16T23:45:48.332Z,67.74
2018-04-16T23:48:15.979Z,66.43
2018-04-16T23:50:43.571Z,65.80
2018-04-16T23:53:11.353Z,66.32
2018-04-16T23:55:38.985Z,66.94
2018-04-16T23:58:06.611Z,67.69
